sensor_id;sensor_type;location;lat;lon;timestamp;temperature;humidity
14154;DHT22;7157;53.144;7.570;2023-08-21T00:07:42;17.87;95.48
14154;DHT22;7157;53.144;7.570;2023-08-21T00:17:46;17.80;96.38
14154;DHT22;7157;53.144;7.570;2023-08-21T00:27:49;17.62;96.39
14154;DHT22;7157;53.144;7.570;2023-08-21T00:37:53;17.28;96.61
14154;DHT22;7157;53.144;7.570;2023-08-21T00:47:56;17.24;96.68
14154;DHT22;7157;53.144;7.570;2023-08-21T00:58:00;17.25;97.02
14154;DHT22;7157;53.144;7.570;2023-08-21T01:08:11;17.18;96.68
14154;DHT22;7157;53.144;7.570;2023-08-21T01:18:18;17.22;96.29
14154;DHT22;7157;53.144;7.570;2023-08-21T01:28:22;17.17;96.49
14154;DHT22;7157;53.144;7.570;2023-08-21T01:38:25;17.20;96.26
14154;DHT22;7157;53.144;7.570;2023-08-21T01:48:29;17.06;96.84
14154;DHT22;7157;53.144;7.570;2023-08-21T01:58:32;17.00;96.79
14154;DHT22;7157;53.144;7.570;2023-08-21T02:08:36;16.91;96.91
14154;DHT22;7157;53.144;7.570;2023-08-21T02:18:39;16.79;97.11
14154;DHT22;7157;53.144;7.570;2023-08-21T02:28:43;16.84;96.96
14154;DHT22;7157;53.144;7.570;2023-08-21T02:38:46;16.69;97.10
14154;DHT22;7157;53.144;7.570;2023-08-21T02:48:50;16.61;96.63
14154;DHT22;7157;53.144;7.570;2023-08-21T02:58:52;16.37;97.39
14154;DHT22;7157;53.144;7.570;2023-08-21T03:08:57;16.26;97.72
14154;DHT22;7157;53.144;7.570;2023-08-21T03:19:00;16.21;97.32
14154;DHT22;7157;53.144;7.570;2023-08-21T03:29:04;16.13;97.10
14154;DHT22;7157;53.144;7.570;2023-08-21T03:39:07;15.97;97.33
14154;DHT22;7157;53.144;7.570;2023-08-21T03:49:11;15.87;97.04
14154;DHT22;7157;53.144;7.570;2023-08-21T03:59:14;15.70;97.02
14154;DHT22;7157;53.144;7.570;2023-08-21T04:09:18;15.58;97.61
14154;DHT22;7157;53.144;7.570;2023-08-21T04:19:21;15.57;97.72
14154;DHT22;7157;53.144;7.570;2023-08-21T04:29:25;15.57;97.46
14154;DHT22;7157;53.144;7.570;2023-08-21T04:39:28;15.57;97.11
14154;DHT22;7157;53.144;7.570;2023-08-21T04:49:32;15.48;97.10
14154;DHT22;7157;53.144;7.570;2023-08-21T04:59:35;15.52;97.09
14154;DHT22;7157;53.144;7.570;2023-08-21T05:09:39;15.55;97.01
14154;DHT22;7157;53.144;7.570;2023-08-21T05:19:42;15.73;97.03
14154;DHT22;7157;53.144;7.570;2023-08-21T05:29:46;15.81;97.13
14154;DHT22;7157;53.144;7.570;2023-08-21T05:39:51;16.00;97.02
14154;DHT22;7157;53.144;7.570;2023-08-21T05:49:55;16.41;96.93
14154;DHT22;7157;53.144;7.570;2023-08-21T05:59:58;16.74;96.88
14154;DHT22;7157;53.144;7.570;2023-08-21T06:10:02;17.15;96.97
14154;DHT22;7157;53.144;7.570;2023-08-21T06:20:06;17.62;96.91
14154;DHT22;7157;53.144;7.570;2023-08-21T06:30:12;17.99;97.10
14154;DHT22;7157;53.144;7.570;2023-08-21T06:40:18;18.34;96.91
14154;DHT22;7157;53.144;7.570;2023-08-21T06:50:22;18.68;96.72
14154;DHT22;7157;53.144;7.570;2023-08-21T07:00:25;19.06;96.29
14154;DHT22;7157;53.144;7.570;2023-08-21T07:10:29;19.40;96.04
14154;DHT22;7157;53.144;7.570;2023-08-21T07:20:33;19.77;95.20
14154;DHT22;7157;53.144;7.570;2023-08-21T07:30:38;20.13;94.41
14154;DHT22;7157;53.144;7.570;2023-08-21T07:40:41;20.53;92.85
14154;DHT22;7157;53.144;7.570;2023-08-21T07:50:51;20.74;90.76
14154;DHT22;7157;53.144;7.570;2023-08-21T08:00:54;21.14;89.21
14154;DHT22;7157;53.144;7.570;2023-08-21T08:11:02;21.42;83.91
14154;DHT22;7157;53.144;7.570;2023-08-21T08:21:05;21.90;82.56
14154;DHT22;7157;53.144;7.570;2023-08-21T08:31:15;22.28;80.96
14154;DHT22;7157;53.144;7.570;2023-08-21T08:41:24;22.66;79.15
14154;DHT22;7157;53.144;7.570;2023-08-21T08:51:31;22.99;76.40
14154;DHT22;7157;53.144;7.570;2023-08-21T09:01:36;23.14;74.18
14154;DHT22;7157;53.144;7.570;2023-08-21T09:11:44;23.40;72.83
14154;DHT22;7157;53.144;7.570;2023-08-21T09:21:49;23.80;68.50
14154;DHT22;7157;53.144;7.570;2023-08-21T09:31:56;23.99;62.60
14154;DHT22;7157;53.144;7.570;2023-08-21T09:41:58;24.21;62.60
14154;DHT22;7157;53.144;7.570;2023-08-21T09:52:04;24.45;61.26
14154;DHT22;7157;53.144;7.570;2023-08-21T10:02:09;24.55;61.97
14154;DHT22;7157;53.144;7.570;2023-08-21T10:12:14;25.06;60.24
14154;DHT22;7157;53.144;7.570;2023-08-21T10:22:37;25.06;55.44
14154;DHT22;7157;53.144;7.570;2023-08-21T10:32:46;25.39;56.72
14154;DHT22;7157;53.144;7.570;2023-08-21T10:42:49;25.45;53.61
14154;DHT22;7157;53.144;7.570;2023-08-21T10:52:53;25.68;53.15
14154;DHT22;7157;53.144;7.570;2023-08-21T11:02:56;25.59;53.23
14154;DHT22;7157;53.144;7.570;2023-08-21T11:13:00;26.09;50.59
14154;DHT22;7157;53.144;7.570;2023-08-21T11:23:05;26.39;49.02
14154;DHT22;7157;53.144;7.570;2023-08-21T11:33:12;30.84;39.72
14154;DHT22;7157;53.144;7.570;2023-08-21T11:43:15;39.68;23.85
14154;DHT22;7157;53.144;7.570;2023-08-21T11:53:34;41.09;22.58
14154;DHT22;7157;53.144;7.570;2023-08-21T12:03:38;43.52;19.04
14154;DHT22;7157;53.144;7.570;2023-08-21T12:13:43;42.39;18.74
14154;DHT22;7157;53.144;7.570;2023-08-21T12:23:45;42.96;18.31
14154;DHT22;7157;53.144;7.570;2023-08-21T12:33:49;44.32;17.11
14154;DHT22;7157;53.144;7.570;2023-08-21T12:43:52;42.19;17.51
14154;DHT22;7157;53.144;7.570;2023-08-21T12:53:56;34.69;26.52
14154;DHT22;7157;53.144;7.570;2023-08-21T13:03:59;29.64;35.62
14154;DHT22;7157;53.144;7.570;2023-08-21T13:14:03;28.69;37.64
14154;DHT22;7157;53.144;7.570;2023-08-21T13:24:06;29.11;38.07
14154;DHT22;7157;53.144;7.570;2023-08-21T13:34:10;29.08;38.54
14154;DHT22;7157;53.144;7.570;2023-08-21T13:44:13;28.80;37.68
14154;DHT22;7157;53.144;7.570;2023-08-21T13:54:17;28.17;38.86
14154;DHT22;7157;53.144;7.570;2023-08-21T14:04:20;28.59;39.15
14154;DHT22;7157;53.144;7.570;2023-08-21T14:14:24;28.31;39.95
14154;DHT22;7157;53.144;7.570;2023-08-21T14:24:27;28.53;39.56
14154;DHT22;7157;53.144;7.570;2023-08-21T14:34:31;28.50;39.31
14154;DHT22;7157;53.144;7.570;2023-08-21T14:44:33;28.45;38.67
14154;DHT22;7157;53.144;7.570;2023-08-21T14:54:37;27.43;40.04
14154;DHT22;7157;53.144;7.570;2023-08-21T15:04:40;27.55;42.92
14154;DHT22;7157;53.144;7.570;2023-08-21T15:14:45;27.52;41.74
14154;DHT22;7157;53.144;7.570;2023-08-21T15:24:47;27.88;40.52
14154;DHT22;7157;53.144;7.570;2023-08-21T15:34:51;27.81;41.46
14154;DHT22;7157;53.144;7.570;2023-08-21T15:44:54;27.24;42.15
14154;DHT22;7157;53.144;7.570;2023-08-21T15:54:58;26.99;41.36
14154;DHT22;7157;53.144;7.570;2023-08-21T16:05:01;26.86;42.53
14154;DHT22;7157;53.144;7.570;2023-08-21T16:15:08;27.11;41.08
14154;DHT22;7157;53.144;7.570;2023-08-21T16:25:11;27.16;40.59
14154;DHT22;7157;53.144;7.570;2023-08-21T16:35:16;26.98;42.57
14154;DHT22;7157;53.144;7.570;2023-08-21T16:45:19;26.84;42.74
14154;DHT22;7157;53.144;7.570;2023-08-21T16:55:23;26.72;44.01
14154;DHT22;7157;53.144;7.570;2023-08-21T17:05:26;26.46;44.44
14154;DHT22;7157;53.144;7.570;2023-08-21T17:15:30;25.95;46.65
14154;DHT22;7157;53.144;7.570;2023-08-21T17:25:33;25.68;48.12
14154;DHT22;7157;53.144;7.570;2023-08-21T17:35:37;25.43;49.47
14154;DHT22;7157;53.144;7.570;2023-08-21T17:45:40;25.14;51.25
14154;DHT22;7157;53.144;7.570;2023-08-21T17:55:44;24.91;56.38
14154;DHT22;7157;53.144;7.570;2023-08-21T18:05:46;24.21;62.02
14154;DHT22;7157;53.144;7.570;2023-08-21T18:15:50;23.88;65.30
14154;DHT22;7157;53.144;7.570;2023-08-21T18:25:53;23.60;67.36
14154;DHT22;7157;53.144;7.570;2023-08-21T18:35:58;23.30;69.85
14154;DHT22;7157;53.144;7.570;2023-08-21T18:46:02;22.96;71.99
14154;DHT22;7157;53.144;7.570;2023-08-21T18:56:07;22.79;73.77
14154;DHT22;7157;53.144;7.570;2023-08-21T19:06:10;22.49;75.69
14154;DHT22;7157;53.144;7.570;2023-08-21T19:16:14;22.24;77.81
14154;DHT22;7157;53.144;7.570;2023-08-21T19:26:17;21.95;79.04
14154;DHT22;7157;53.144;7.570;2023-08-21T19:36:21;21.77;80.37
14154;DHT22;7157;53.144;7.570;2023-08-21T19:46:23;21.65;80.13
14154;DHT22;7157;53.144;7.570;2023-08-21T19:56:28;21.48;80.62
14154;DHT22;7157;53.144;7.570;2023-08-21T20:06:30;21.20;81.39
14154;DHT22;7157;53.144;7.570;2023-08-21T20:16:35;21.02;82.11
14154;DHT22;7157;53.144;7.570;2023-08-21T20:26:37;20.69;83.93
14154;DHT22;7157;53.144;7.570;2023-08-21T20:36:41;20.59;84.33
14154;DHT22;7157;53.144;7.570;2023-08-21T20:46:44;20.45;84.61
14154;DHT22;7157;53.144;7.570;2023-08-21T20:56:48;20.35;85.33
14154;DHT22;7157;53.144;7.570;2023-08-21T21:06:53;20.16;86.18
14154;DHT22;7157;53.144;7.570;2023-08-21T21:16:57;20.06;86.72
14154;DHT22;7157;53.144;7.570;2023-08-21T21:27:00;19.87;87.86
14154;DHT22;7157;53.144;7.570;2023-08-21T21:37:05;19.86;88.46
14154;DHT22;7157;53.144;7.570;2023-08-21T21:47:10;19.73;90.15
14154;DHT22;7157;53.144;7.570;2023-08-21T21:57:14;19.76;89.60
14154;DHT22;7157;53.144;7.570;2023-08-21T22:07:17;19.50;90.32
14154;DHT22;7157;53.144;7.570;2023-08-21T22:17:21;19.29;91.14
14154;DHT22;7157;53.144;7.570;2023-08-21T22:27:24;19.28;91.04
14154;DHT22;7157;53.144;7.570;2023-08-21T22:37:29;19.14;91.38
14154;DHT22;7157;53.144;7.570;2023-08-21T22:47:32;19.10;91.27
14154;DHT22;7157;53.144;7.570;2023-08-21T22:57:36;19.00;91.38
14154;DHT22;7157;53.144;7.570;2023-08-21T23:07:42;18.94;91.55
14154;DHT22;7157;53.144;7.570;2023-08-21T23:17:46;18.86;92.14
14154;DHT22;7157;53.144;7.570;2023-08-21T23:27:49;18.85;91.90
14154;DHT22;7157;53.144;7.570;2023-08-21T23:37:53;18.70;92.40
14154;DHT22;7157;53.144;7.570;2023-08-21T23:47:55;18.61;92.53
14154;DHT22;7157;53.144;7.570;2023-08-21T23:58:00;18.49;93.31
